Schedule Details


Flight Number: CTN648
Departure: Kastela (LDSP) at 23:25
Arrival: Cilipi (LDDU) at 00:05
Route: SIPAL L607 NERRA

Weather Information
LDSP 251300Z 11010KT 070V130 9999 FEW017 SCT023 OVC037 13/10 Q1023 NOSIG
LDDU 251300Z 12016KT 9999 SCT023 BKN055 12/07 Q1024 NOSIG
Schedule Frequency

Route Map